createdAt,value
2023-01-29T00:02:43.002Z,34.53
2023-01-29T00:05:45.235Z,34.78
2023-01-29T00:08:47.509Z,39.97
2023-01-29T00:11:49.798Z,37.35
2023-01-29T00:14:52.076Z,35.30
2023-01-29T00:17:54.555Z,37.22
2023-01-29T00:20:57.353Z,38.38
2023-01-29T00:24:00.302Z,39.10
2023-01-29T00:27:02.669Z,39.03
2023-01-29T00:30:16.481Z,39.80
2023-01-29T00:33:19.346Z,36.78
2023-01-29T00:36:22.507Z,38.20
2023-01-29T00:39:31.391Z,35.95
2023-01-29T00:42:57.328Z,36.55
2023-01-29T00:45:59.977Z,34.67
2023-01-29T00:49:02.472Z,35.22
2023-01-29T00:52:24.172Z,38.03
2023-01-29T00:55:26.615Z,39.08
2023-01-29T00:58:34.277Z,35.40
2023-01-29T01:01:55.400Z,35.50
2023-01-29T01:04:57.722Z,33.90
2023-01-29T01:08:00.191Z,37.97
2023-01-29T01:11:05.957Z,36.35
2023-01-29T01:14:08.622Z,35.60
2023-01-29T01:17:10.948Z,41.60
2023-01-29T01:20:13.469Z,35.38
2023-01-29T01:23:16.069Z,42.65
2023-01-29T01:26:18.893Z,39.35
2023-01-29T01:29:21.173Z,38.67
2023-01-29T01:32:23.738Z,40.60
2023-01-29T01:35:26.157Z,37.15
2023-01-29T01:38:28.476Z,35.55
2023-01-29T01:41:30.978Z,34.70
2023-01-29T01:44:54.078Z,39.85
2023-01-29T01:47:59.380Z,40.07
2023-01-29T01:51:06.589Z,37.47
2023-01-29T01:54:28.387Z,33.95
2023-01-29T01:57:31.869Z,36.28
2023-01-29T02:00:34.359Z,35.85
2023-01-29T02:04:03.398Z,39.17
2023-01-29T02:07:26.870Z,36.10
2023-01-29T02:10:31.899Z,36.08
2023-01-29T02:13:34.239Z,44.22
2023-01-29T02:16:37.203Z,34.93
2023-01-29T02:19:59.722Z,31.40
2023-01-29T02:23:37.227Z,37.90
2023-01-29T02:26:48.931Z,40.60
2023-01-29T02:30:06.618Z,40.92
2023-01-29T02:33:41.229Z,38.47
2023-01-29T02:36:43.470Z,34.67
2023-01-29T02:39:53.403Z,38.40
2023-01-29T02:43:26.704Z,37.00
2023-01-29T02:46:39.941Z,35.10
2023-01-29T02:49:50.415Z,40.30
2023-01-29T02:53:00.124Z,35.15
2023-01-29T02:56:08.709Z,39.17
2023-01-29T02:59:23.791Z,31.00
2023-01-29T03:02:45.336Z,37.87
2023-01-29T03:06:20.516Z,36.30
2023-01-29T03:09:29.970Z,35.10
2023-01-29T03:12:34.234Z,35.35
2023-01-29T03:15:47.041Z,33.92
2023-01-29T03:19:16.762Z,38.67
2023-01-29T03:22:22.420Z,33.10
2023-01-29T03:25:46.059Z,31.98
2023-01-29T03:29:07.639Z,37.25
2023-01-29T03:32:11.106Z,37.87
2023-01-29T03:35:21.260Z,33.27
2023-01-29T03:38:29.600Z,37.72
2023-01-29T03:41:39.018Z,33.95
2023-01-29T03:45:09.284Z,35.10
2023-01-29T03:48:18.619Z,35.70
2023-01-29T03:51:43.585Z,35.03
2023-01-29T03:54:54.657Z,33.53
2023-01-29T03:58:09.632Z,32.25
2023-01-29T04:01:27.782Z,35.47
2023-01-29T04:04:34.888Z,33.58
2023-01-29T04:07:40.140Z,36.15
2023-01-29T04:10:43.333Z,34.58
2023-01-29T04:13:46.606Z,38.47
2023-01-29T04:16:54.336Z,32.97
2023-01-29T04:20:05.614Z,42.83
2023-01-29T04:23:23.861Z,36.75
2023-01-29T04:26:38.311Z,33.17
2023-01-29T04:29:48.369Z,41.17
2023-01-29T04:33:04.621Z,36.20
2023-01-29T04:36:24.535Z,35.22
2023-01-29T04:39:48.532Z,36.95
2023-01-29T04:43:06.965Z,32.53
2023-01-29T04:46:17.685Z,29.27
2023-01-29T04:49:46.164Z,31.53
2023-01-29T04:53:06.463Z,31.52
2023-01-29T04:56:17.716Z,32.70
2023-01-29T04:59:26.280Z,32.13
2023-01-29T05:02:29.474Z,30.63
2023-01-29T05:05:32.009Z,26.90
2023-01-29T05:08:35.364Z,27.52
2023-01-29T05:11:37.760Z,25.27
2023-01-29T05:14:42.127Z,25.92
2023-01-29T05:17:44.542Z,23.60
2023-01-29T05:20:47.196Z,22.90
2023-01-29T05:24:11.505Z,22.50
2023-01-29T05:27:48.275Z,23.10
2023-01-29T05:30:53.125Z,21.15
2023-01-29T05:33:55.963Z,20.13
2023-01-29T05:36:58.241Z,22.15
2023-01-29T05:40:00.533Z,23.42
2023-01-29T05:43:02.913Z,23.08
2023-01-29T05:46:05.611Z,24.52
2023-01-29T05:49:07.922Z,20.93
2023-01-29T05:52:10.191Z,22.92
2023-01-29T05:55:12.580Z,20.70
2023-01-29T05:58:14.969Z,19.67
2023-01-29T06:01:19.915Z,21.75
2023-01-29T06:04:22.212Z,22.97
2023-01-29T06:07:24.543Z,27.08
2023-01-29T06:10:26.844Z,25.27
2023-01-29T06:13:29.179Z,22.75
2023-01-29T06:16:31.514Z,19.73
2023-01-29T06:19:33.841Z,23.30
2023-01-29T06:22:36.162Z,18.58
2023-01-29T06:25:38.464Z,19.88
2023-01-29T06:28:41.033Z,20.67
2023-01-29T06:31:43.398Z,21.33
2023-01-29T06:34:47.325Z,22.47
2023-01-29T06:37:51.041Z,21.80
2023-01-29T06:40:53.558Z,22.70
2023-01-29T06:43:55.904Z,21.40
2023-01-29T06:46:58.178Z,21.80
2023-01-29T06:50:00.812Z,17.30
2023-01-29T06:53:03.023Z,17.17
2023-01-29T06:56:06.469Z,19.35
2023-01-29T06:59:08.741Z,19.52
2023-01-29T07:02:11.250Z,20.53
2023-01-29T07:05:13.548Z,19.97
2023-01-29T07:08:15.818Z,20.08
2023-01-29T07:11:19.055Z,17.27
2023-01-29T07:14:21.320Z,18.70
2023-01-29T07:17:23.600Z,17.57
2023-01-29T07:20:30.651Z,17.03
2023-01-29T07:23:34.879Z,16.80
2023-01-29T07:26:37.190Z,16.50
2023-01-29T07:29:39.464Z,14.63
2023-01-29T07:32:42.208Z,17.37
2023-01-29T07:35:44.634Z,17.00
2023-01-29T07:38:50.826Z,15.27
2023-01-29T07:41:53.100Z,17.40
2023-01-29T07:44:58.287Z,17.00
2023-01-29T07:48:00.692Z,17.73
2023-01-29T07:51:03.239Z,15.73
2023-01-29T07:54:05.622Z,15.32
2023-01-29T07:57:07.865Z,17.33
2023-01-29T08:00:11.834Z,19.00
2023-01-29T08:03:18.563Z,16.83
2023-01-29T08:06:20.883Z,19.73
2023-01-29T08:09:23.113Z,17.55
2023-01-29T08:12:25.509Z,14.95
2023-01-29T08:15:28.858Z,14.60
2023-01-29T08:18:33.919Z,17.87
2023-01-29T08:21:36.222Z,15.53
2023-01-29T08:24:53.298Z,17.23
2023-01-29T08:27:57.980Z,15.68
2023-01-29T08:31:00.431Z,17.38
2023-01-29T08:34:02.853Z,13.87
2023-01-29T08:37:05.174Z,12.30
2023-01-29T08:40:09.600Z,13.88
2023-01-29T08:43:13.295Z,16.10
2023-01-29T08:46:15.658Z,16.80
2023-01-29T08:49:17.976Z,13.60
2023-01-29T08:52:20.204Z,17.17
2023-01-29T08:55:22.478Z,12.43
2023-01-29T08:58:24.806Z,13.73
2023-01-29T09:01:27.082Z,13.75
2023-01-29T09:04:29.408Z,15.73
2023-01-29T09:07:31.689Z,15.63
2023-01-29T09:10:34.559Z,15.57
2023-01-29T09:13:36.815Z,16.92
2023-01-29T09:16:39.143Z,12.30
2023-01-29T09:19:41.429Z,11.47
2023-01-29T09:22:44.126Z,13.80
2023-01-29T09:25:46.813Z,15.95
2023-01-29T09:28:49.209Z,13.45
2023-01-29T09:31:51.637Z,11.95
2023-01-29T09:34:53.955Z,15.70
2023-01-29T09:37:56.972Z,12.07
2023-01-29T09:41:26.687Z,11.02
2023-01-29T09:44:44.159Z,11.38
2023-01-29T09:47:48.832Z,12.98
2023-01-29T09:50:55.136Z,14.77
2023-01-29T09:54:23.539Z,11.10
2023-01-29T09:57:51.617Z,14.65
2023-01-29T10:01:17.861Z,13.68
2023-01-29T10:04:32.483Z,13.10
2023-01-29T10:07:40.674Z,12.70
2023-01-29T10:10:56.011Z,11.10
2023-01-29T10:13:58.225Z,9.30
2023-01-29T10:17:38.210Z,12.55
2023-01-29T10:21:01.844Z,11.32
2023-01-29T10:24:13.299Z,12.77
2023-01-29T10:27:16.893Z,12.70
2023-01-29T10:30:31.242Z,11.65
2023-01-29T10:33:49.152Z,9.82
2023-01-29T10:36:57.314Z,9.80
2023-01-29T10:40:00.393Z,13.03
2023-01-29T10:43:02.662Z,10.10
2023-01-29T10:46:15.826Z,8.57
2023-01-29T10:49:41.317Z,10.60
2023-01-29T10:52:58.834Z,11.20
2023-01-29T10:56:10.813Z,9.33
2023-01-29T10:59:40.067Z,10.13
2023-01-29T11:02:48.430Z,9.73
2023-01-29T11:06:13.014Z,11.02
2023-01-29T11:12:41.755Z,10.23
2023-01-29T11:15:44.142Z,10.03
2023-01-29T11:19:04.649Z,11.38
2023-01-29T11:22:12.831Z,9.38
2023-01-29T11:25:20.065Z,10.77
2023-01-29T11:28:40.679Z,11.10
2023-01-29T11:31:43.057Z,10.33
2023-01-29T11:35:02.288Z,9.98
2023-01-29T11:38:16.849Z,9.05
2023-01-29T11:41:22.494Z,10.32
2023-01-29T11:44:32.916Z,8.90
2023-01-29T11:47:35.189Z,10.13
2023-01-29T11:50:37.507Z,9.32
2023-01-29T11:53:45.896Z,9.73
2023-01-29T11:56:48.412Z,7.45
2023-01-29T11:59:51.984Z,9.17
2023-01-29T12:02:57.860Z,8.50
2023-01-29T12:06:06.987Z,9.10
2023-01-29T12:09:17.488Z,10.35
2023-01-29T12:12:33.687Z,10.80
2023-01-29T12:15:40.353Z,8.83
2023-01-29T12:18:46.897Z,10.33
2023-01-29T12:21:52.375Z,10.45
2023-01-29T12:25:09.865Z,10.40
2023-01-29T12:28:36.670Z,11.00
2023-01-29T12:32:16.570Z,10.83
2023-01-29T12:35:28.775Z,10.17
2023-01-29T12:38:31.076Z,10.25
2023-01-29T12:41:41.206Z,11.10
2023-01-29T12:44:47.929Z,9.43
2023-01-29T12:48:00.920Z,9.87
2023-01-29T12:51:17.737Z,9.63
2023-01-29T12:54:26.710Z,9.10
2023-01-29T12:57:38.638Z,7.97
2023-01-29T13:00:44.042Z,10.07
2023-01-29T13:03:57.470Z,11.07
2023-01-29T13:07:12.191Z,11.03
2023-01-29T13:10:19.170Z,8.00
2023-01-29T13:13:36.283Z,7.65
2023-01-29T13:16:42.646Z,10.25
2023-01-29T13:19:48.336Z,9.17
2023-01-29T13:22:52.078Z,8.03
2023-01-29T13:25:54.622Z,9.70
2023-01-29T13:28:58.004Z,7.82
2023-01-29T13:32:03.150Z,9.07
2023-01-29T13:35:13.336Z,7.63
2023-01-29T13:38:42.275Z,9.30
2023-01-29T13:41:44.727Z,9.73
2023-01-29T13:44:56.211Z,8.23
2023-01-29T13:48:18.122Z,7.28
2023-01-29T13:51:22.167Z,7.20
2023-01-29T13:54:25.867Z,6.97
2023-01-29T13:57:53.991Z,9.23
2023-01-29T14:01:00.368Z,7.80
2023-01-29T14:04:21.753Z,9.23
2023-01-29T14:07:45.687Z,7.20
2023-01-29T14:11:30.727Z,7.17
2023-01-29T14:15:21.291Z,8.20
2023-01-29T14:18:28.655Z,6.68
2023-01-29T14:21:35.345Z,7.45
2023-01-29T14:24:38.852Z,6.37
2023-01-29T14:27:47.490Z,5.30
2023-01-29T14:30:50.453Z,8.38
2023-01-29T14:33:53.087Z,7.60
2023-01-29T14:36:58.078Z,6.88
2023-01-29T14:40:12.754Z,8.03
2023-01-29T14:43:22.499Z,6.23
2023-01-29T14:46:33.759Z,6.43
2023-01-29T14:49:50.081Z,6.68
2023-01-29T14:52:54.095Z,7.40
2023-01-29T14:55:59.142Z,8.23
2023-01-29T14:59:21.170Z,6.63
2023-01-29T15:02:33.858Z,6.53
2023-01-29T15:05:37.772Z,6.55
2023-01-29T15:08:44.376Z,6.07
2023-01-29T15:12:06.061Z,7.93
2023-01-29T15:15:33.270Z,12.13
2023-01-29T15:18:43.407Z,7.97
2023-01-29T15:22:20.914Z,7.68
2023-01-29T15:25:23.504Z,7.53
2023-01-29T15:28:26.976Z,8.73
2023-01-29T15:31:29.609Z,9.43
2023-01-29T15:34:32.146Z,7.22
2023-01-29T15:37:35.440Z,8.50
2023-01-29T15:40:37.909Z,7.38
2023-01-29T15:43:44.087Z,8.00
2023-01-29T15:46:51.721Z,7.53
2023-01-29T15:49:55.360Z,8.73
2023-01-29T15:52:58.973Z,9.13
2023-01-29T15:56:01.956Z,7.75
2023-01-29T15:59:09.693Z,10.17
2023-01-29T16:02:30.333Z,9.43
2023-01-29T16:05:33.180Z,8.75
2023-01-29T16:08:35.783Z,8.82
2023-01-29T16:11:38.094Z,11.32
2023-01-29T16:14:40.934Z,10.20
2023-01-29T16:17:44.998Z,8.30
2023-01-29T16:20:51.992Z,9.57
2023-01-29T16:24:09.769Z,9.07
2023-01-29T16:27:14.459Z,10.07
2023-01-29T16:30:17.868Z,14.20
2023-01-29T16:33:21.478Z,8.87
2023-01-29T16:36:25.870Z,10.00
2023-01-29T16:39:32.688Z,10.70
2023-01-29T16:42:36.072Z,10.25
2023-01-29T16:45:38.392Z,9.90
2023-01-29T16:48:40.769Z,11.30
2023-01-29T16:51:43.095Z,10.68
2023-01-29T16:54:45.441Z,12.52
2023-01-29T16:57:56.994Z,11.70
2023-01-29T17:01:06.864Z,12.07
2023-01-29T17:04:16.472Z,12.47
2023-01-29T17:07:21.464Z,10.23
2023-01-29T17:10:24.216Z,10.75
2023-01-29T17:13:41.716Z,9.40
2023-01-29T17:16:51.284Z,10.87
2023-01-29T17:19:53.572Z,10.57
2023-01-29T17:22:55.898Z,11.25
2023-01-29T17:25:59.748Z,12.00
2023-01-29T17:29:02.122Z,10.57
2023-01-29T17:32:04.691Z,9.67
2023-01-29T17:35:07.407Z,12.10
2023-01-29T17:38:25.014Z,11.65
2023-01-29T17:41:30.451Z,11.65
2023-01-29T17:44:32.807Z,13.07
2023-01-29T17:47:35.114Z,11.90
2023-01-29T17:50:38.645Z,13.30
2023-01-29T17:53:45.931Z,12.32
2023-01-29T17:56:49.373Z,11.27
2023-01-29T17:59:51.666Z,11.88
2023-01-29T18:02:54.346Z,16.77
2023-01-29T18:05:56.702Z,13.03
2023-01-29T18:08:59.039Z,14.52
2023-01-29T18:12:01.329Z,13.55
2023-01-29T18:15:03.768Z,15.57
2023-01-29T18:18:06.624Z,15.70
2023-01-29T18:21:08.984Z,12.30
2023-01-29T18:24:11.305Z,14.07
2023-01-29T18:27:13.575Z,13.65
2023-01-29T18:30:16.222Z,11.57
2023-01-29T18:33:18.870Z,13.53
2023-01-29T18:36:21.151Z,13.77
2023-01-29T18:39:23.537Z,15.20
2023-01-29T18:42:25.855Z,14.85
2023-01-29T18:45:28.843Z,11.65
2023-01-29T18:48:31.168Z,13.87
2023-01-29T18:51:33.495Z,12.87
2023-01-29T18:54:35.765Z,12.57
2023-01-29T18:58:25.289Z,12.70
2023-01-29T19:01:07.149Z,12.82
2023-01-29T19:04:09.520Z,12.57
2023-01-29T19:07:13.797Z,11.37
2023-01-29T19:10:17.014Z,13.57
2023-01-29T19:13:19.285Z,12.25
2023-01-29T19:16:21.650Z,13.07
2023-01-29T19:19:24.036Z,12.03
2023-01-29T19:22:26.292Z,12.67
2023-01-29T19:25:28.679Z,13.93
2023-01-29T19:28:31.018Z,14.23
2023-01-29T19:31:33.580Z,11.90
2023-01-29T19:34:35.971Z,12.70
2023-01-29T19:37:38.313Z,11.57
2023-01-29T19:40:40.588Z,12.68
2023-01-29T19:43:43.148Z,14.80
2023-01-29T19:46:46.930Z,11.55
2023-01-29T19:49:49.344Z,14.43
2023-01-29T19:52:53.352Z,13.50
2023-01-29T19:56:13.689Z,16.00
2023-01-29T19:59:18.948Z,14.80
2023-01-29T20:02:21.380Z,14.20
2023-01-29T20:05:24.165Z,12.00
2023-01-29T20:08:26.453Z,12.00
2023-01-29T20:11:34.326Z,12.40
2023-01-29T20:14:36.663Z,12.95
2023-01-29T20:17:39.376Z,10.57
2023-01-29T20:20:42.833Z,13.40
2023-01-29T20:23:46.786Z,12.77
2023-01-29T20:26:49.619Z,12.70
2023-01-29T20:29:52.806Z,15.05
2023-01-29T20:32:55.124Z,12.80
2023-01-29T20:35:59.703Z,11.93
2023-01-29T20:39:06.942Z,12.10
2023-01-29T20:42:09.243Z,14.07
2023-01-29T20:45:12.340Z,11.07
2023-01-29T20:48:14.625Z,11.75
2023-01-29T20:51:21.432Z,11.17
2023-01-29T20:54:23.711Z,13.00
2023-01-29T20:57:26.183Z,10.73
2023-01-29T21:00:28.524Z,13.82
2023-01-29T21:03:30.870Z,13.68
2023-01-29T21:06:33.287Z,14.87
2023-01-29T21:09:35.667Z,10.88
2023-01-29T21:12:38.069Z,16.52
2023-01-29T21:15:42.438Z,12.35
2023-01-29T21:18:44.707Z,13.02
2023-01-29T21:21:47.007Z,12.73
2023-01-29T21:24:49.369Z,13.65
2023-01-29T21:27:51.694Z,13.73
2023-01-29T21:31:08.229Z,13.48
2023-01-29T21:34:10.842Z,13.57
2023-01-29T21:37:13.143Z,16.50
2023-01-29T21:40:15.964Z,14.68
2023-01-29T21:43:18.744Z,15.93
2023-01-29T21:46:21.073Z,13.80
2023-01-29T21:49:23.935Z,14.45
2023-01-29T21:52:26.314Z,17.50
2023-01-29T21:55:29.568Z,15.43
2023-01-29T21:58:32.307Z,13.40
2023-01-29T22:01:38.114Z,16.27
2023-01-29T22:04:43.969Z,15.13
2023-01-29T22:07:46.527Z,14.20
2023-01-29T22:10:58.905Z,13.35
2023-01-29T22:14:01.414Z,15.57
2023-01-29T22:17:04.099Z,15.68
2023-01-29T22:20:10.704Z,15.77
2023-01-29T22:23:13.094Z,15.30
2023-01-29T22:26:15.790Z,15.88
2023-01-29T22:29:18.265Z,17.63
2023-01-29T22:32:20.650Z,13.93
2023-01-29T22:35:22.980Z,15.93
2023-01-29T22:38:25.829Z,18.00
2023-01-29T22:41:28.494Z,15.50
2023-01-29T22:44:31.356Z,15.65
2023-01-29T22:47:33.817Z,16.63
2023-01-29T22:50:36.147Z,17.27
2023-01-29T22:54:04.667Z,16.88
2023-01-29T22:57:10.217Z,18.25
2023-01-29T23:00:19.406Z,16.07
2023-01-29T23:03:22.048Z,17.17
2023-01-29T23:06:24.513Z,16.67
2023-01-29T23:09:27.467Z,16.90
2023-01-29T23:12:29.989Z,15.20
2023-01-29T23:15:32.392Z,16.67
2023-01-29T23:18:35.465Z,14.73
2023-01-29T23:21:38.351Z,19.20
2023-01-29T23:24:41.091Z,16.27
2023-01-29T23:27:43.419Z,14.40
2023-01-29T23:30:47.925Z,16.00
2023-01-29T23:33:50.651Z,15.18
2023-01-29T23:36:52.984Z,13.70
2023-01-29T23:39:55.319Z,14.77
2023-01-29T23:42:57.649Z,15.75
2023-01-29T23:46:00.317Z,16.75
2023-01-29T23:49:03.202Z,17.13
2023-01-29T23:52:05.912Z,16.75
2023-01-29T23:55:08.535Z,17.50
2023-01-29T23:58:11.268Z,18.52
